This is the latest recevied weather packets stored in our database for station/object I1SXT-13. If no packets are shown the sender has not sent any weather packets the latest 10 day(s).
| Time | Temp. | Humidity | Pressure | Rain* | Wind** | Luminosity | Snow |
|---|---|---|---|---|---|---|---|
| 1777782868 | 8.89° C | 73% | 1021.2 hPa | 0 mm | - | - | - |
| 1777782564 | 9.44° C | 71% | 1021.1 hPa | 0 mm | - | - | - |
| 1777782267 | 10° C | 67% | 1021.2 hPa | 0 mm | - | - | - |
| 1777781969 | 10.56° C | 63% | 1021 hPa | 0 mm | - | - | - |
| 1777781665 | 11.11° C | 60% | 1021.2 hPa | 0 mm | - | - | - |
| 1777781368 | 11.11° C | 60% | 1021.5 hPa | 0 mm | - | - | - |
| 1777781064 | 10.56° C | 63% | 1021.5 hPa | 0 mm | - | - | - |
| 1777780767 | 10.56° C | 61% | 1021.2 hPa | 0 mm | - | - | - |
| 1777780166 | 11.11° C | 59% | 1021.5 hPa | 0 mm | - | - | - |
| 1777779869 | 10.56° C | 65% | 1022.1 hPa | 0 mm | - | - | - |
| 1777779565 | 10.56° C | 65% | 1021.5 hPa | 0 mm | - | - | - |
| 1777779268 | 10.56° C | 63% | 1021.9 hPa | 0 mm | - | - | - |
| 1777778964 | 11.11° C | 61% | 1021.6 hPa | 0 mm | - | - | - |
| 1777778666 | 11.11° C | 59% | 1021.6 hPa | 0 mm | - | - | - |
| 1777778369 | 11.11° C | 61% | 1021.6 hPa | 0 mm | - | - | - |
| 1777778065 | 10.56° C | 66% | 1021.5 hPa | 0 mm | - | - | - |
| 1777777768 | 10° C | 68% | 1021.3 hPa | 0 mm | - | - | - |
| 1777777464 | 9.44° C | 72% | 1021.9 hPa | 0 mm | - | - | - |
| 1777777167 | 9.44° C | 71% | 1021.9 hPa | 0 mm | - | - | - |
| 1777776870 | 9.44° C | 73% | 1021.5 hPa | 0 mm | - | - | - |
| 1777776566 | 9.44° C | 75% | 1021.3 hPa | 0 mm | - | - | - |
| 1777776268 | 9.44° C | 74% | 1021.6 hPa | 0 mm | - | - | - |
| 1777775964 | 9.44° C | 72% | 1021.6 hPa | 0 mm | - | - | - |
| 1777775667 | 10.56° C | 66% | 1022.1 hPa | 0 mm | - | - | - |
| 1777775066 | 10.56° C | 65% | 1021.8 hPa | 0 mm | - | - | - |
* Rain since midnight (hover to see other rain measurements)
** Current wind speed in m/s (hover to see current wind gust speed)